»·PEaware :: N623JB KSNA-KCRQ

N623JB :: KSNA-KCRQ

FLIGHT INFORMATION

Flight Status: Arrived
Operator: Privately registered:
United States
More flights under this callsign
Pilot: Jonathan B. (32222)
Aircraft: CIRRUS SR-22
(SR22)
More flights by this aircraft type
Origin: KSNA John Wayne-Orange Co
United States
Destination: KCRQ McClellan-Palomar
United States
More flights between these airports :: More routes between these airports
Route: V23 OCN
File this flight plan on PilotEdge
Remarks:
Altitude:
(Current/Filed)
5,000ft
Speed:
(Current/Filed)
140kts
Departed: 16-Nov-20 11:24 AM
Arrived: 16-Nov-20 11:56 AM
Distance/Time
Traveled:
6774nm/0:32
Distance/Time
To Go:
Arrived

Flight Plot

Page will automatically refresh every two minutes.


Map Options




Map Legend


Flown Route
Filed Route
Departure Airport
Arrival Airport
Navaid (VOR, NDB)
Fix

Horizontal Profiles

Position Reports

Time Latitude Longitude Heading Altitude Ground
Speed
16-Nov-20 10:27 33.676158 -117.870972 183 52ft 0kts
16-Nov-20 10:28 33.676158 -117.870972 183 52ft 0kts
16-Nov-20 10:29 33.676158 -117.870972 183 52ft 0kts
16-Nov-20 10:30 33.676158 -117.870972 183 52ft 0kts
16-Nov-20 10:31 33.676158 -117.870972 183 52ft 0kts
16-Nov-20 10:32 33.676158 -117.870972 183 52ft 0kts
16-Nov-20 10:33 33.676158 -117.870972 183 52ft 0kts
16-Nov-20 10:34 33.676158 -117.870972 183 52ft 0kts
16-Nov-20 10:35 33.676158 -117.870972 183 52ft 0kts
16-Nov-20 10:36 33.676158 -117.870972 183 52ft 0kts
16-Nov-20 10:37 33.676158 -117.870972 183 52ft 0kts
16-Nov-20 10:38 33.676158 -117.870972 183 52ft 0kts
16-Nov-20 10:39 33.676158 -117.870972 183 52ft 0kts
16-Nov-20 10:39 33.676158 -117.870972 183 52ft 0kts
16-Nov-20 10:41 33.676158 -117.870972 183 52ft 0kts
16-Nov-20 10:42 33.676158 -117.870972 183 52ft 0kts
16-Nov-20 10:43 33.676158 -117.870972 183 52ft 0kts
16-Nov-20 10:43 33.676158 -117.870972 183 52ft 0kts
16-Nov-20 10:44 33.676158 -117.870972 183 52ft 0kts
16-Nov-20 10:46 33.676158 -117.870972 183 52ft 0kts
16-Nov-20 10:46 33.676158 -117.870972 183 52ft 0kts
16-Nov-20 10:47 33.676158 -117.870972 183 52ft 0kts
16-Nov-20 10:48 33.676158 -117.870972 183 52ft 0kts
16-Nov-20 10:49 33.676158 -117.870972 183 52ft 0kts
16-Nov-20 10:50 33.676281 -117.870962 183 52ft 1kts
16-Nov-20 10:51 33.676410 -117.870952 183 52ft 0kts
16-Nov-20 10:52 33.676410 -117.870952 183 52ft 0kts
16-Nov-20 10:53 33.676410 -117.870952 183 52ft 0kts
16-Nov-20 10:54 33.676410 -117.870952 183 52ft 0kts
16-Nov-20 10:55 33.676410 -117.870952 183 52ft 0kts
16-Nov-20 10:56 33.676410 -117.870952 183 52ft 0kts
16-Nov-20 10:57 33.676410 -117.870952 183 52ft 0kts
16-Nov-20 10:58 33.676410 -117.870952 183 52ft 0kts
16-Nov-20 10:59 33.676410 -117.870952 183 52ft 0kts
16-Nov-20 11:00 33.676410 -117.870952 183 52ft 0kts
16-Nov-20 11:01 33.676410 -117.870952 183 52ft 0kts
16-Nov-20 11:02 33.676410 -117.870952 183 52ft 0kts
16-Nov-20 11:03 33.676410 -117.870952 183 52ft 0kts
16-Nov-20 11:04 33.676410 -117.870952 183 52ft 0kts
16-Nov-20 11:05 33.676410 -117.870952 183 52ft 0kts
16-Nov-20 11:06 33.676410 -117.870952 183 52ft 0kts
16-Nov-20 11:07 33.676410 -117.870952 183 52ft 0kts
16-Nov-20 11:08 33.676410 -117.870952 183 52ft 0kts
16-Nov-20 11:09 33.676410 -117.870952 183 52ft 0kts
16-Nov-20 11:10 33.676410 -117.870952 183 52ft 0kts
16-Nov-20 11:11 33.676410 -117.870952 183 52ft 0kts
16-Nov-20 11:12 33.676410 -117.870952 183 52ft 0kts
16-Nov-20 11:13 33.676410 -117.870952 183 52ft 0kts
16-Nov-20 11:14 33.676410 -117.870951 182 52ft 0kts
16-Nov-20 11:15 33.676410 -117.870952 182 52ft 0kts
16-Nov-20 11:16 33.676410 -117.870952 182 52ft 0kts
16-Nov-20 11:17 33.676385 -117.870947 160 52ft 3kts
16-Nov-20 11:18 33.677984 -117.868888 27 50ft 16kts
16-Nov-20 11:19 33.681212 -117.866429 117 43ft 0kts
16-Nov-20 11:20 33.681212 -117.866429 117 43ft 0kts
16-Nov-20 11:21 33.681212 -117.866429 117 43ft 0kts
16-Nov-20 11:22 33.681212 -117.866429 117 43ft 0kts
16-Nov-20 11:23 33.677600 -117.867648 211 60ft 74kts
16-Nov-20 11:24 33.651043 -117.874556 172 1437ft 106kts
16-Nov-20 11:25 33.621963 -117.870218 182 2971ft 105kts
16-Nov-20 11:26 33.592432 -117.870069 186 4031ft 105kts
16-Nov-20 11:27 33.562834 -117.870962 185 4855ft 114kts
16-Nov-20 11:28 33.549158 -117.830825 97 4998ft 155kts
16-Nov-20 11:29 33.549181 -117.778860 85 4998ft 157kts
16-Nov-20 11:30 33.520936 -117.742647 135 4994ft 157kts
16-Nov-20 11:31 33.490437 -117.704227 132 5002ft 160kts
16-Nov-20 11:32 33.459370 -117.666788 139 5000ft 158kts
16-Nov-20 11:33 33.427800 -117.629691 137 5004ft 156kts
16-Nov-20 11:34 33.397228 -117.593019 137 4989ft 157kts
16-Nov-20 11:35 33.366200 -117.556203 138 5004ft 156kts
16-Nov-20 11:36 33.331182 -117.528704 150 4998ft 156kts
16-Nov-20 11:37 33.302293 -117.490827 144 4998ft 151kts
16-Nov-20 11:38 33.273387 -117.459919 139 5004ft 152kts
16-Nov-20 11:39 33.242068 -117.424619 139 5001ft 157kts
16-Nov-20 11:40 33.239987 -117.375710 104 5011ft 156kts
16-Nov-20 11:41 33.234406 -117.324026 99 4998ft 158kts
16-Nov-20 11:42 33.229868 -117.272748 95 4995ft 157kts
16-Nov-20 11:43 33.227202 -117.221196 91 4999ft 154kts
16-Nov-20 11:44 33.225967 -117.170456 91 5006ft 147kts
16-Nov-20 11:45 33.224648 -117.123497 92 5008ft 139kts
16-Nov-20 11:46 33.223314 -117.077469 94 4993ft 139kts
16-Nov-20 11:47 33.191376 -117.055044 169 4095ft 136kts
16-Nov-20 11:48 33.165422 -117.071329 226 4009ft 106kts
16-Nov-20 11:49 33.156826 -117.104612 255 3397ft 109kts
16-Nov-20 11:50 33.151142 -117.138308 261 2648ft 95kts
16-Nov-20 11:51 33.146222 -117.169145 260 2031ft 100kts
16-Nov-20 11:52 33.140841 -117.202373 259 1595ft 98kts
16-Nov-20 11:53 33.136117 -117.231364 261 1121ft 80kts
16-Nov-20 11:54 33.132119 -117.256445 258 664ft 74kts
16-Nov-20 11:55 33.128840 -117.276635 257 328ft 17kts
16-Nov-20 11:56 33.127833 -117.278081 105 331ft 0kts
16-Nov-20 11:57 33.127781 -117.277637 129 331ft 6kts
16-Nov-20 11:58 33.127593 -117.277502 171 331ft 3kts
16-Nov-20 11:59 33.127601 -117.276984 45 332ft 0kts
16-Nov-20 12:00 0.000408 0.013975 359 3ft 0kts
16-Nov-20 12:01 0.000408 0.013975 359 3ft 0kts
16-Nov-20 12:02 0.000408 0.013975 359 3ft 0kts
16-Nov-20 12:03 0.000408 0.013975 359 3ft 0kts
16-Nov-20 12:04 0.000408 0.013975 359 3ft 0kts
16-Nov-20 12:05 0.000408 0.013975 359 3ft 0kts
16-Nov-20 12:06 0.000408 0.013975 359 3ft 0kts
16-Nov-20 12:07 0.000408 0.013975 359 3ft 0kts
16-Nov-20 12:08 0.000408 0.013975 359 3ft 0kts
16-Nov-20 12:09 0.000408 0.013975 359 3ft 0kts

Navigation Log

Ident Type
Flight plan parsing failed, navigation log unavailable